Time;durP1;ratioP1;P1;durP2;ratioP2;P2;SDS_P1;SDS_P2;PMS_P1;PMS_P2;Temp;Humidity;BMP_temperature;BMP_pressure;BME280_temperature;BME280_humidity;BME280_pressure;Samples;Min_cycle;Max_cycle;Signal;HPM_P1;HPM_P2
2023/08/11 00:00:47;;;;;;;5.70;3.10;;;12.40;99.90;;;;;;5075160;28;20251;-79
2023/08/11 00:03:21;;;;;;;3.45;3.15;;;12.30;99.90;;;;;;5076630;28;20165;-79
2023/08/11 00:05:48;;;;;;;5.47;3.45;;;12.40;99.90;;;;;;5075555;28;20205;-79
2023/08/11 00:08:17;;;;;;;6.50;2.95;;;12.30;99.90;;;;;;5074977;28;20169;-79
2023/08/11 00:10:44;;;;;;;3.17;2.88;;;12.40;99.90;;;;;;5074968;28;20181;-79
2023/08/11 00:13:13;;;;;;;3.78;2.70;;;12.40;99.90;;;;;;5074615;28;20184;-79
2023/08/11 00:15:42;;;;;;;3.38;3.08;;;12.40;99.90;;;;;;5075187;28;20184;-79
2023/08/11 00:18:08;;;;;;;4.43;3.00;;;12.40;99.90;;;;;;5075294;28;20265;-79
2023/08/11 00:20:34;;;;;;;4.88;3.10;;;12.40;99.90;;;;;;5075190;28;20197;-79
2023/08/11 00:22:59;;;;;;;3.65;2.80;;;12.40;99.90;;;;;;5074999;28;20178;-79
2023/08/11 00:25:25;;;;;;;2.63;2.42;;;12.30;99.90;;;;;;5074956;28;20169;-79
2023/08/11 00:27:51;;;;;;;4.70;3.13;;;12.30;99.90;;;;;;5075201;28;20246;-79
2023/08/11 00:30:18;;;;;;;4.78;3.10;;;12.30;99.90;;;;;;5075340;28;20181;-79
2023/08/11 00:32:54;;;;;;;4.85;3.20;;;12.20;99.90;;;;;;5075288;28;20185;-79
2023/08/11 00:35:21;;;;;;;7.90;3.10;;;12.20;99.90;;;;;;5076217;28;20165;-79
2023/08/11 00:37:47;;;;;;;6.75;3.25;;;12.20;99.90;;;;;;5076445;28;20193;-79
2023/08/11 00:40:13;;;;;;;4.53;3.35;;;12.20;99.90;;;;;;5074910;28;20213;-79
2023/08/11 00:42:39;;;;;;;4.22;3.30;;;12.10;99.90;;;;;;5076652;28;20524;-79
2023/08/11 00:45:06;;;;;;;3.78;3.40;;;12.10;99.90;;;;;;5075474;28;20174;-79
2023/08/11 00:47:32;;;;;;;5.53;3.05;;;12.00;99.90;;;;;;5075558;28;20193;-79
2023/08/11 00:49:58;;;;;;;4.32;3.05;;;12.00;99.90;;;;;;5076091;28;20205;-79
2023/08/11 00:52:24;;;;;;;6.18;3.05;;;11.80;99.90;;;;;;5075554;28;20185;-79
2023/08/11 00:54:53;;;;;;;5.53;3.03;;;11.80;99.90;;;;;;5076027;28;20628;-79
2023/08/11 00:57:19;;;;;;;4.65;3.22;;;11.80;99.90;;;;;;5077194;28;20193;-79
2023/08/11 00:59:46;;;;;;;4.55;3.45;;;11.80;99.90;;;;;;5076457;28;20203;-80
2023/08/11 08:18:42;;;;;;;4.82;3.70;;;19.20;99.90;;;;;;3951378;23;20480;-81
2023/08/11 08:21:08;;;;;;;3.72;3.25;;;19.40;99.90;;;;;;4937632;29;20298;-80
2023/08/11 08:23:34;;;;;;;6.65;3.40;;;19.50;99.90;;;;;;4939592;29;20201;-80
2023/08/11 08:26:03;;;;;;;3.75;3.35;;;19.60;99.90;;;;;;4939253;29;20201;-80
2023/08/11 08:28:28;;;;;;;4.32;3.30;;;19.70;99.90;;;;;;4938548;29;20173;-80
2023/08/11 08:30:54;;;;;;;4.88;3.20;;;19.80;99.90;;;;;;4938273;29;20186;-81
2023/08/11 08:33:20;;;;;;;4.32;3.45;;;20.00;99.90;;;;;;4938802;29;20182;-81
2023/08/11 08:35:45;;;;;;;3.78;3.35;;;20.10;99.90;;;;;;4939491;29;20241;-82
2023/08/11 08:38:11;;;;;;;3.97;3.30;;;20.10;99.90;;;;;;4939475;29;20185;-81
2023/08/11 08:40:37;;;;;;;4.88;3.13;;;20.20;99.90;;;;;;4937113;29;20289;-81
2023/08/11 08:43:06;;;;;;;4.47;3.60;;;20.30;99.90;;;;;;4936214;29;20269;-81
2023/08/11 08:45:33;;;;;;;5.72;3.42;;;20.40;99.90;;;;;;4937163;29;20270;-80
2023/08/11 08:47:59;;;;;;;6.63;3.42;;;20.50;99.90;;;;;;4937218;29;20188;-80
2023/08/11 08:50:26;;;;;;;4.95;3.17;;;20.70;99.90;;;;;;4936477;29;20186;-81
2023/08/11 08:52:53;;;;;;;5.90;3.47;;;20.80;99.90;;;;;;4936714;29;20178;-81
2023/08/11 08:55:18;;;;;;;6.43;3.53;;;21.00;99.90;;;;;;4937375;29;20676;-81
2023/08/11 08:57:46;;;;;;;6.55;3.22;;;21.10;99.90;;;;;;4936585;29;20202;-81
2023/08/11 09:00:12;;;;;;;4.35;3.03;;;21.20;99.90;;;;;;4936617;29;20223;-81
2023/08/11 09:02:39;;;;;;;4.70;3.13;;;21.30;99.90;;;;;;4936519;29;20206;-81
2023/08/11 09:05:06;;;;;;;3.40;3.10;;;21.40;99.90;;;;;;4939398;29;20175;-81
2023/08/11 09:07:32;;;;;;;9.50;3.22;;;21.50;99.90;;;;;;4939139;29;20205;-81
2023/08/11 09:09:57;;;;;;;7.38;3.00;;;21.50;99.90;;;;;;4938740;29;20261;-81
2023/08/11 09:12:27;;;;;;;3.25;3.05;;;21.60;99.90;;;;;;4936582;29;20629;-81
2023/08/11 09:14:53;;;;;;;4.22;3.25;;;21.70;99.90;;;;;;4937763;29;20624;-81
2023/08/11 09:17:19;;;;;;;4.05;3.55;;;21.70;99.90;;;;;;4938491;29;20203;-81
2023/08/11 09:19:54;;;;;;;4.05;3.63;;;21.80;99.90;;;;;;4938074;29;20266;-81
2023/08/11 09:22:27;;;;;;;10.13;3.70;;;21.80;99.90;;;;;;4938345;29;20264;-81
2023/08/11 09:24:53;;;;;;;6.80;4.18;;;21.90;99.90;;;;;;4939074;29;20262;-81
2023/08/11 09:27:20;;;;;;;5.38;3.50;;;22.00;99.70;;;;;;4938188;29;20265;-81
2023/08/11 09:29:47;;;;;;;4.43;2.90;;;21.90;98.40;;;;;;4938612;29;20189;-80
2023/08/11 09:32:12;;;;;;;3.03;2.72;;;22.10;99.00;;;;;;4938488;29;20242;-80
2023/08/11 09:34:39;;;;;;;7.03;3.42;;;22.20;98.60;;;;;;4938803;29;20189;-80
2023/08/11 09:37:05;;;;;;;5.25;3.03;;;22.30;98.30;;;;;;4940374;29;20236;-81
2023/08/11 09:39:31;;;;;;;3.55;2.90;;;22.40;98.60;;;;;;4942286;29;20195;-86
2023/08/11 09:41:57;;;;;;;8.52;2.97;;;22.40;98.20;;;;;;4942549;29;20210;-81
2023/08/11 09:44:22;;;;;;;3.47;2.72;;;22.50;97.50;;;;;;4942218;29;20174;-81
2023/08/11 09:46:48;;;;;;;7.82;3.72;;;22.60;97.00;;;;;;4943498;29;20205;-80
2023/08/11 09:49:14;;;;;;;3.80;3.08;;;22.60;96.70;;;;;;4948590;29;20283;-81
2023/08/11 09:51:41;;;;;;;4.90;2.63;;;22.60;97.30;;;;;;4962196;28;20273;-81
2023/08/11 09:54:09;;;;;;;3.17;2.88;;;22.70;96.90;;;;;;4961462;29;20183;-81
2023/08/11 09:56:39;;;;;;;6.30;3.00;;;22.70;97.80;;;;;;4948601;29;20225;-81
2023/08/11 09:59:11;;;;;;;4.18;3.17;;;22.80;97.10;;;;;;4942632;29;20201;-81
2023/08/11 10:01:39;;;;;;;6.55;2.80;;;22.90;97.10;;;;;;4942337;29;20218;-81
2023/08/11 10:04:10;;;;;;;3.53;2.83;;;23.00;95.90;;;;;;4942012;29;20228;-81
2023/08/11 10:06:41;;;;;;;3.35;2.83;;;23.10;95.90;;;;;;4942514;29;20194;-82
2023/08/11 10:09:09;;;;;;;4.25;3.05;;;23.10;95.40;;;;;;4941593;29;20182;-81
2023/08/11 10:11:36;;;;;;;5.63;2.70;;;23.20;96.80;;;;;;4942842;29;20192;-81
2023/08/11 10:14:04;;;;;;;9.70;2.80;;;23.30;96.10;;;;;;4941257;29;20178;-80
2023/08/11 10:16:30;;;;;;;4.43;2.95;;;23.40;95.80;;;;;;4942853;29;20198;-81
2023/08/11 10:19:00;;;;;;;3.05;2.75;;;23.50;95.90;;;;;;4945014;29;20204;-81
2023/08/11 10:21:25;;;;;;;3.67;2.70;;;23.70;95.50;;;;;;4949159;29;20258;-81
2023/08/11 10:23:53;;;;;;;4.90;2.50;;;23.80;95.60;;;;;;4946137;29;20174;-82
2023/08/11 10:26:19;;;;;;;2.55;2.35;;;23.90;93.40;;;;;;4953536;29;20270;-82
2023/08/11 10:28:45;;;;;;;4.05;2.50;;;23.80;93.10;;;;;;4953652;29;20170;-81
2023/08/11 10:31:11;;;;;;;5.50;2.60;;;23.80;92.70;;;;;;4953000;29;20721;-81
2023/08/11 10:33:36;;;;;;;4.00;2.80;;;23.80;91.70;;;;;;4951975;29;20178;-80
2023/08/11 10:36:02;;;;;;;2.88;2.60;;;23.90;92.20;;;;;;4950724;29;20217;-81
2023/08/11 10:38:30;;;;;;;3.25;2.30;;;24.00;92.10;;;;;;4939640;29;20251;-81
2023/08/11 10:41:00;;;;;;;2.88;2.60;;;23.90;90.10;;;;;;4949699;29;20296;-78
2023/08/11 10:43:32;;;;;;;5.43;2.60;;;24.00;91.40;;;;;;4934850;29;20195;-80
2023/08/11 10:46:21;;;;;;;5.35;2.47;;;24.00;91.90;;;;;;4933421;29;20199;-80
2023/08/11 10:48:47;;;;;;;4.22;2.33;;;24.20;91.60;;;;;;4932573;29;20234;-80
2023/08/11 10:51:40;;;;;;;3.10;2.80;;;24.30;92.20;;;;;;4932512;29;20194;-80
2023/08/11 10:54:06;;;;;;;3.05;2.53;;;24.40;90.30;;;;;;4930640;29;20222;-80
2023/08/11 10:56:33;;;;;;;3.05;2.75;;;24.60;91.00;;;;;;4932741;29;20195;-80
2023/08/11 10:59:11;;;;;;;4.55;2.40;;;24.50;89.60;;;;;;4929752;29;20183;-80
2023/08/11 11:01:38;;;;;;;2.47;2.28;;;24.50;88.00;;;;;;4922433;29;20282;-80
2023/08/11 11:04:06;;;;;;;4.75;2.40;;;24.50;88.80;;;;;;4922277;29;20183;-80
2023/08/11 11:06:34;;;;;;;3.47;2.33;;;24.50;86.70;;;;;;4922563;29;20274;-81
2023/08/11 11:09:00;;;;;;;3.33;2.40;;;24.60;89.00;;;;;;4922675;29;20171;-82
2023/08/11 11:11:25;;;;;;;3.95;2.40;;;24.60;88.00;;;;;;4921807;29;20246;-81
2023/08/11 11:13:52;;;;;;;5.15;2.40;;;24.70;87.50;;;;;;4921827;29;20191;-81
2023/08/11 11:16:19;;;;;;;8.77;2.50;;;24.70;86.00;;;;;;4921786;29;20203;-80
2023/08/11 11:18:47;;;;;;;2.63;2.30;;;24.90;88.70;;;;;;4921446;29;20218;-80
2023/08/11 11:21:17;;;;;;;3.67;2.45;;;24.90;87.70;;;;;;4922991;29;20278;-80
2023/08/11 11:23:45;;;;;;;3.03;2.40;;;24.90;86.30;;;;;;4921883;29;20252;-80
2023/08/11 11:26:21;;;;;;;2.95;2.30;;;24.90;85.70;;;;;;4921502;29;20199;-79
2023/08/11 11:28:46;;;;;;;2.35;2.15;;;24.90;85.90;;;;;;4922095;29;20175;-80
2023/08/11 11:31:13;;;;;;;2.45;2.25;;;25.00;84.40;;;;;;4928238;29;20230;-80
2023/08/11 11:33:39;;;;;;;2.33;2.10;;;24.90;81.40;;;;;;4950339;29;20182;-80
2023/08/11 11:36:05;;;;;;;4.18;2.30;;;24.90;84.90;;;;;;4938618;29;20249;-80
2023/08/11 11:38:31;;;;;;;2.17;2.00;;;24.90;83.20;;;;;;4933074;29;20190;-80
2023/08/11 11:40:56;;;;;;;4.15;2.20;;;25.00;81.80;;;;;;4929180;29;20296;-80
2023/08/11 11:43:22;;;;;;;2.40;2.20;;;25.10;84.00;;;;;;4928499;29;20179;-80
2023/08/11 11:45:50;;;;;;;4.15;2.35;;;25.20;86.10;;;;;;4929099;29;20223;-81
2023/08/11 11:48:16;;;;;;;5.95;2.00;;;25.20;83.40;;;;;;4928113;29;20179;-81
2023/08/11 11:50:42;;;;;;;2.65;2.10;;;25.30;82.60;;;;;;4929875;29;20681;-81
2023/08/11 11:53:13;;;;;;;6.50;2.45;;;25.20;79.60;;;;;;4933894;29;20190;-80
2023/08/11 11:55:46;;;;;;;3.60;2.00;;;25.10;79.00;;;;;;4936414;29;20198;-80
2023/08/11 11:58:15;;;;;;;2.55;2.35;;;25.10;79.80;;;;;;4940117;29;20273;-80
2023/08/11 12:00:43;;;;;;;3.17;2.30;;;25.20;81.30;;;;;;4939829;29;20214;-82
2023/08/11 12:03:09;;;;;;;2.67;2.10;;;25.30;80.70;;;;;;4940615;29;20205;-81
2023/08/11 12:05:35;;;;;;;3.55;2.20;;;25.30;80.30;;;;;;4941689;29;20204;-81
2023/08/11 12:08:15;;;;;;;5.88;2.40;;;25.40;83.20;;;;;;4947790;29;20613;-81
2023/08/11 12:10:41;;;;;;;2.35;2.15;;;25.50;82.90;;;;;;4948045;29;20174;-81
2023/08/11 12:13:06;;;;;;;5.72;2.20;;;25.50;78.90;;;;;;4946994;29;20175;-81
2023/08/11 12:15:32;;;;;;;2.20;2.00;;;25.50;81.70;;;;;;4948110;29;20186;-81
2023/08/11 12:18:03;;;;;;;2.63;2.42;;;25.50;80.10;;;;;;4947551;29;20197;-81
2023/08/11 12:20:29;;;;;;;3.08;2.42;;;25.50;79.50;;;;;;4941259;29;20186;-81
2023/08/11 12:22:55;;;;;;;2.22;2.10;;;25.50;81.60;;;;;;4941284;29;20174;-81
2023/08/11 12:25:20;;;;;;;2.20;2.05;;;25.40;81.60;;;;;;4946494;29;20615;-81
2023/08/11 12:27:48;;;;;;;3.97;2.50;;;25.50;80.70;;;;;;4939817;29;20681;-81
2023/08/11 12:30:15;;;;;;;3.65;2.20;;;25.50;80.70;;;;;;4940117;29;20234;-81
2023/08/11 12:32:41;;;;;;;2.70;2.50;;;25.60;80.70;;;;;;4938751;29;20183;-81
2023/08/11 12:35:11;;;;;;;3.58;2.65;;;25.60;80.10;;;;;;4939953;29;20185;-81
2023/08/11 12:37:38;;;;;;;2.60;2.40;;;25.70;80.20;;;;;;4939952;29;20209;-81
2023/08/11 12:40:22;;;;;;;5.97;2.63;;;25.70;80.80;;;;;;4940304;29;20221;-81
2023/08/11 12:42:47;;;;;;;4.82;2.40;;;25.70;83.30;;;;;;4940319;29;20178;-81
2023/08/11 12:45:22;;;;;;;5.15;2.85;;;25.80;83.90;;;;;;4939661;29;20178;-82
2023/08/11 12:47:48;;;;;;;4.22;2.53;;;25.90;83.00;;;;;;4940415;29;20170;-82
2023/08/11 12:50:13;;;;;;;4.47;2.42;;;25.90;79.80;;;;;;4939146;29;20245;-82
2023/08/11 12:52:39;;;;;;;3.03;1.98;;;25.90;78.10;;;;;;4939410;29;20210;-81
2023/08/11 12:55:07;;;;;;;7.45;2.42;;;26.00;77.20;;;;;;4939891;29;20197;-82
2023/08/11 12:57:33;;;;;;;2.50;2.30;;;26.10;79.80;;;;;;4940019;29;20213;-82
2023/08/11 12:59:59;;;;;;;4.13;2.50;;;26.10;81.50;;;;;;4940066;29;20190;-82
2023/08/11 13:02:24;;;;;;;3.90;2.30;;;26.10;82.90;;;;;;4939301;29;20213;-82
2023/08/11 13:04:50;;;;;;;3.30;2.40;;;26.10;83.40;;;;;;4941040;29;20178;-82
2023/08/11 13:07:15;;;;;;;2.13;2.03;;;26.00;82.00;;;;;;4939999;29;20569;-82
2023/08/11 13:09:41;;;;;;;4.07;2.60;;;25.90;82.30;;;;;;4940072;29;20338;-82
2023/08/11 13:12:12;;;;;;;4.43;2.00;;;26.00;83.30;;;;;;4941366;29;20185;-82
2023/08/11 13:14:41;;;;;;;2.30;2.10;;;26.00;80.10;;;;;;4939637;29;20167;-81
2023/08/11 13:17:07;;;;;;;3.88;2.00;;;26.10;78.90;;;;;;4922255;29;20199;-82
2023/08/11 13:19:34;;;;;;;3.00;1.90;;;26.20;78.90;;;;;;4922624;29;20194;-82
2023/08/11 13:22:04;;;;;;;4.57;2.17;;;26.20;78.80;;;;;;4923151;29;20209;-82
2023/08/11 13:24:39;;;;;;;5.00;1.83;;;26.20;75.50;;;;;;4933541;29;20167;-82
2023/08/11 13:27:05;;;;;;;2.50;2.10;;;26.20;76.10;;;;;;4923682;29;20225;-81
2023/08/11 13:29:34;;;;;;;7.32;2.45;;;26.20;75.60;;;;;;4940785;29;20528;-82
2023/08/11 13:31:59;;;;;;;3.03;2.10;;;26.20;77.20;;;;;;4929212;29;20194;-82
2023/08/11 13:34:28;;;;;;;2.35;2.00;;;26.20;80.50;;;;;;4926299;29;20175;-82
2023/08/11 13:36:54;;;;;;;4.72;2.20;;;26.20;77.20;;;;;;4924420;29;20210;-82
2023/08/11 13:39:19;;;;;;;14.30;2.33;;;26.20;79.00;;;;;;4923479;29;20183;-82
2023/08/11 13:41:45;;;;;;;5.45;2.10;;;26.30;81.10;;;;;;4922312;29;20233;-84
2023/08/11 13:44:11;;;;;;;2.60;2.00;;;26.40;80.60;;;;;;4921774;29;20187;-82
2023/08/11 13:46:38;;;;;;;4.05;1.95;;;26.40;76.90;;;;;;4921389;29;20250;-82
2023/08/11 13:49:11;;;;;;;2.97;1.88;;;26.40;77.20;;;;;;4922440;29;20181;-82
2023/08/11 13:51:37;;;;;;;1.88;1.73;;;26.40;76.70;;;;;;4923510;29;20221;-82
2023/08/11 13:54:03;;;;;;;1.98;1.83;;;26.40;76.20;;;;;;4923665;29;20199;-82
2023/08/11 13:56:30;;;;;;;2.55;1.80;;;26.40;77.70;;;;;;4923113;29;20257;-82
2023/08/11 13:58:55;;;;;;;4.07;1.80;;;26.40;77.80;;;;;;4923854;29;20187;-81
2023/08/11 14:01:21;;;;;;;2.75;1.98;;;26.50;78.30;;;;;;4924996;29;20187;-81
2023/08/11 14:03:47;;;;;;;2.90;1.73;;;26.40;77.60;;;;;;4925234;29;20262;-82
2023/08/11 14:06:13;;;;;;;1.90;1.73;;;26.40;77.30;;;;;;4924359;29;20246;-82
2023/08/11 14:08:39;;;;;;;5.90;2.08;;;26.30;76.40;;;;;;4924134;29;20186;-82
2023/08/11 14:11:05;;;;;;;3.20;1.77;;;26.20;75.50;;;;;;4923699;29;20202;-82
2023/08/11 14:13:31;;;;;;;4.13;1.95;;;26.20;76.70;;;;;;4923742;29;20186;-82
2023/08/11 14:15:57;;;;;;;1.95;1.85;;;26.20;75.80;;;;;;4923492;29;20202;-82
2023/08/11 14:18:22;;;;;;;2.65;1.70;;;26.20;75.00;;;;;;4923716;29;20179;-82
2023/08/11 14:20:48;;;;;;;4.15;2.00;;;26.20;76.50;;;;;;4923444;29;20214;-80
2023/08/11 14:23:13;;;;;;;3.80;1.90;;;26.10;76.00;;;;;;4931038;29;20198;-82
2023/08/11 14:25:40;;;;;;;2.20;2.00;;;26.10;76.50;;;;;;4932042;29;20197;-80
2023/08/11 14:28:06;;;;;;;2.40;1.80;;;26.10;77.20;;;;;;4939955;29;20186;-81
2023/08/11 14:30:32;;;;;;;2.63;2.05;;;26.10;77.30;;;;;;4942384;29;20261;-81
2023/08/11 14:33:00;;;;;;;2.00;1.73;;;26.10;76.00;;;;;;4941716;29;20250;-81
2023/08/11 14:35:25;;;;;;;2.28;1.83;;;26.10;76.70;;;;;;4939924;29;20685;-81
2023/08/11 14:37:52;;;;;;;5.63;2.10;;;26.10;76.30;;;;;;4941563;29;20166;-84
2023/08/11 14:40:17;;;;;;;1.92;1.83;;;26.10;76.80;;;;;;4942473;29;20182;-81
2023/08/11 14:42:43;;;;;;;3.83;1.98;;;26.10;78.30;;;;;;4942068;29;20283;-81
2023/08/11 14:45:09;;;;;;;2.22;2.03;;;26.00;76.60;;;;;;4942473;29;20189;-81
2023/08/11 14:47:34;;;;;;;2.00;1.90;;;25.90;76.20;;;;;;4942118;29;20198;-82
2023/08/11 14:50:00;;;;;;;2.28;2.05;;;25.90;78.10;;;;;;4942365;29;20269;-81
2023/08/11 14:52:26;;;;;;;4.40;2.10;;;25.80;78.00;;;;;;4941583;29;20237;-81
2023/08/11 14:54:52;;;;;;;2.00;1.90;;;25.90;78.80;;;;;;4942910;29;20187;-82
2023/08/11 14:57:18;;;;;;;4.53;2.00;;;25.90;77.00;;;;;;4941493;29;20222;-82
2023/08/11 14:59:44;;;;;;;3.28;1.80;;;25.90;78.60;;;;;;4940806;29;20190;-83
2023/08/11 15:02:10;;;;;;;4.15;1.85;;;25.90;76.90;;;;;;4941768;29;20218;-83
2023/08/11 15:04:36;;;;;;;2.67;2.08;;;25.90;77.20;;;;;;4941635;29;20183;-83
2023/08/11 15:07:01;;;;;;;3.33;1.77;;;25.80;76.10;;;;;;4945832;29;20450;-82
2023/08/11 15:09:27;;;;;;;2.78;1.80;;;25.80;77.30;;;;;;4945788;29;20171;-82
2023/08/11 15:11:52;;;;;;;2.95;1.90;;;25.80;80.80;;;;;;4946099;29;20394;-82
2023/08/11 15:14:18;;;;;;;3.97;2.10;;;25.80;78.80;;;;;;4948278;29;20672;-82
2023/08/11 15:16:43;;;;;;;2.40;1.90;;;25.70;77.70;;;;;;4946944;29;20202;-82
2023/08/11 15:19:09;;;;;;;2.00;1.80;;;25.70;78.50;;;;;;4947035;29;20190;-82
2023/08/11 15:21:34;;;;;;;7.05;2.10;;;25.70;78.90;;;;;;4946532;29;20289;-82
2023/08/11 15:24:00;;;;;;;7.38;2.13;;;25.70;80.50;;;;;;4947084;29;20210;-82
2023/08/11 15:26:25;;;;;;;1.95;1.77;;;25.70;80.90;;;;;;4942363;29;20201;-82
2023/08/11 15:28:51;;;;;;;3.22;1.80;;;25.70;78.80;;;;;;4938378;29;20217;-83
2023/08/11 15:31:17;;;;;;;2.60;1.90;;;25.70;77.00;;;;;;4938091;29;20194;-83
2023/08/11 15:33:43;;;;;;;2.50;1.80;;;25.70;77.90;;;;;;4928165;29;20197;-83
2023/08/11 15:36:09;;;;;;;3.05;2.10;;;25.70;78.30;;;;;;4919022;29;20741;-82
2023/08/11 15:38:35;;;;;;;6.65;2.00;;;25.70;79.90;;;;;;4918553;29;20179;-82
2023/08/11 15:41:02;;;;;;;2.15;1.95;;;25.70;80.30;;;;;;4919373;29;20183;-83
2023/08/11 15:43:28;;;;;;;4.95;1.90;;;25.70;79.40;;;;;;4922837;29;20182;-83
2023/08/11 15:45:53;;;;;;;2.85;1.73;;;25.70;79.70;;;;;;4921559;29;20199;-83
2023/08/11 15:48:19;;;;;;;4.65;1.80;;;25.70;79.50;;;;;;4922893;29;20194;-83
2023/08/11 15:50:44;;;;;;;1.90;1.80;;;25.60;79.70;;;;;;4923242;29;20666;-83
2023/08/11 15:53:10;;;;;;;2.55;1.65;;;25.60;78.40;;;;;;4920888;29;20195;-83
2023/08/11 15:55:36;;;;;;;2.58;1.90;;;25.60;79.70;;;;;;4921410;29;20194;-83
2023/08/11 15:58:01;;;;;;;1.98;1.88;;;25.50;77.90;;;;;;4922168;29;20175;-83
2023/08/11 16:00:27;;;;;;;4.30;2.15;;;25.50;79.20;;;;;;4922202;29;20522;-82
2023/08/11 16:02:53;;;;;;;1.90;1.80;;;25.50;80.20;;;;;;4921929;29;20241;-82
2023/08/11 16:05:18;;;;;;;3.00;1.80;;;25.50;79.00;;;;;;4921530;29;20178;-82
2023/08/11 16:07:44;;;;;;;2.75;1.83;;;25.40;77.80;;;;;;4920561;29;20202;-82
2023/08/11 16:10:10;;;;;;;2.15;1.85;;;25.40;78.70;;;;;;4920487;29;20186;-82
2023/08/11 16:12:35;;;;;;;2.45;2.00;;;25.40;79.20;;;;;;4919962;29;20211;-82
2023/08/11 16:15:02;;;;;;;2.35;2.13;;;25.40;79.60;;;;;;4920357;29;20179;-82
2023/08/11 16:17:28;;;;;;;3.67;1.90;;;25.40;81.00;;;;;;4921022;29;20213;-83
2023/08/11 16:19:53;;;;;;;2.03;1.88;;;25.40;79.80;;;;;;4920354;29;20268;-83
2023/08/11 16:22:19;;;;;;;5.72;1.95;;;25.40;79.90;;;;;;4921484;29;20218;-83
2023/08/11 16:24:44;;;;;;;7.18;2.20;;;25.30;80.40;;;;;;4920177;29;20179;-83
2023/08/11 16:27:10;;;;;;;2.00;1.77;;;25.30;79.80;;;;;;4920339;29;20231;-84
2023/08/11 16:29:40;;;;;;;3.53;2.00;;;25.30;81.40;;;;;;4920329;29;20190;-83
2023/08/11 16:32:07;;;;;;;1.80;1.70;;;25.20;80.60;;;;;;4922758;29;20617;-83
2023/08/11 16:34:33;;;;;;;2.72;2.05;;;25.20;81.30;;;;;;4933531;29;20181;-83
2023/08/11 16:36:58;;;;;;;2.42;1.80;;;25.10;82.70;;;;;;4938700;29;20716;-83
2023/08/11 16:39:24;;;;;;;2.03;1.83;;;25.10;82.10;;;;;;4938912;29;20211;-81
2023/08/11 16:41:49;;;;;;;6.35;2.00;;;25.00;82.50;;;;;;4922183;29;20187;-83
2023/08/11 16:44:15;;;;;;;3.25;2.00;;;24.90;83.40;;;;;;4922540;29;20175;-83
2023/08/11 16:46:40;;;;;;;2.13;1.90;;;24.90;83.70;;;;;;4922341;29;20206;-82
2023/08/11 16:49:07;;;;;;;3.55;1.95;;;24.70;83.40;;;;;;4922439;29;20261;-83
2023/08/11 16:51:32;;;;;;;5.00;1.67;;;24.60;83.80;;;;;;4922967;29;20266;-83
2023/08/11 16:53:58;;;;;;;6.93;2.00;;;24.50;84.10;;;;;;4921572;29;20191;-83
2023/08/11 16:56:24;;;;;;;2.20;1.65;;;24.40;84.10;;;;;;4921306;29;20697;-83
2023/08/11 16:58:49;;;;;;;2.53;1.70;;;24.30;84.00;;;;;;4925050;29;20187;-82
2023/08/11 17:01:15;;;;;;;1.73;1.60;;;24.20;85.00;;;;;;4925815;29;20527;-82
2023/08/11 17:03:41;;;;;;;7.57;1.60;;;24.20;85.80;;;;;;4925721;29;20210;-83
2023/08/11 17:06:06;;;;;;;3.05;2.00;;;24.10;85.90;;;;;;4926877;29;20213;-83
2023/08/11 17:08:33;;;;;;;2.97;1.70;;;24.00;86.50;;;;;;4942616;29;20245;-82
2023/08/11 17:11:11;;;;;;;3.88;2.05;;;23.90;87.40;;;;;;4944518;29;20756;-82
2023/08/11 17:13:36;;;;;;;4.38;1.98;;;23.80;88.90;;;;;;4943812;29;20206;-83
2023/08/11 17:16:02;;;;;;;5.32;1.90;;;23.80;90.20;;;;;;4943448;29;20198;-83
2023/08/11 17:18:27;;;;;;;3.33;1.73;;;23.70;90.00;;;;;;4941770;29;20182;-83
2023/08/11 17:20:53;;;;;;;7.13;2.00;;;23.70;90.40;;;;;;4942580;29;20198;-83
2023/08/11 17:23:18;;;;;;;4.40;1.92;;;23.60;90.50;;;;;;4941057;29;20217;-82
2023/08/11 17:25:44;;;;;;;2.95;1.67;;;23.50;90.80;;;;;;4935385;29;20241;-83
2023/08/11 17:28:10;;;;;;;4.85;1.85;;;23.50;90.50;;;;;;4934060;29;20182;-83
2023/08/11 17:30:35;;;;;;;3.78;1.73;;;23.50;90.40;;;;;;4940986;29;20182;-83
2023/08/11 17:33:01;;;;;;;6.15;1.70;;;23.50;90.50;;;;;;4942290;29;20182;-82
2023/08/11 17:35:27;;;;;;;15.07;2.42;;;23.50;90.60;;;;;;4942381;29;20186;-83
2023/08/11 17:37:52;;;;;;;4.82;2.10;;;23.60;90.50;;;;;;4942877;29;20277;-82
2023/08/11 17:40:18;;;;;;;3.72;2.20;;;23.50;90.50;;;;;;4943504;29;20206;-82
2023/08/11 17:42:43;;;;;;;4.40;2.03;;;23.60;90.70;;;;;;4943056;29;20178;-82
2023/08/11 17:45:09;;;;;;;2.33;1.70;;;23.60;90.70;;;;;;4944696;29;20182;-83
2023/08/11 17:47:35;;;;;;;9.45;2.05;;;23.60;90.80;;;;;;4945032;29;20197;-83
2023/08/11 17:50:02;;;;;;;4.15;2.10;;;23.50;90.90;;;;;;4943683;29;20197;-82
2023/08/11 17:52:28;;;;;;;8.73;2.58;;;23.50;91.00;;;;;;4942752;29;20217;-82
2023/08/11 17:54:54;;;;;;;3.40;2.03;;;23.50;91.00;;;;;;4943583;29;20182;-82
2023/08/11 17:57:19;;;;;;;11.30;2.00;;;23.40;90.90;;;;;;4942463;29;20278;-82
2023/08/11 17:59:45;;;;;;;5.75;2.30;;;23.40;91.30;;;;;;4942428;29;20206;-82
2023/08/11 18:02:10;;;;;;;2.63;1.95;;;23.30;91.50;;;;;;4942311;29;20182;-82
2023/08/11 18:04:36;;;;;;;5.38;1.98;;;23.20;91.80;;;;;;4942126;29;20190;-81
2023/08/11 18:07:02;;;;;;;4.63;1.90;;;23.20;91.80;;;;;;4923757;29;20235;-82
2023/08/11 18:09:28;;;;;;;5.70;1.90;;;23.10;91.50;;;;;;4921349;29;20194;-82
2023/08/11 18:12:04;;;;;;;2.00;1.80;;;23.00;91.60;;;;;;4921356;29;20214;-82
2023/08/11 18:14:31;;;;;;;2.13;1.65;;;23.00;91.80;;;;;;4922581;29;20167;-81
2023/08/11 18:16:57;;;;;;;5.25;1.70;;;22.90;91.50;;;;;;4921879;29;20203;-82
2023/08/11 18:19:23;;;;;;;6.78;2.20;;;22.80;91.40;;;;;;4922608;29;20185;-82
2023/08/11 18:21:50;;;;;;;9.27;2.22;;;22.80;91.90;;;;;;4924191;29;20198;-82
2023/08/11 18:24:16;;;;;;;6.72;2.03;;;22.70;93.20;;;;;;4923713;29;20181;-81
2023/08/11 18:26:41;;;;;;;6.38;2.38;;;22.70;93.50;;;;;;4923231;29;20270;-83
2023/08/11 18:29:07;;;;;;;4.90;2.15;;;22.60;94.30;;;;;;4922899;29;20202;-82
2023/08/11 18:31:33;;;;;;;8.80;2.30;;;22.50;95.00;;;;;;4929459;29;20223;-82
2023/08/11 18:33:59;;;;;;;7.07;1.95;;;22.30;95.70;;;;;;4923827;29;20591;-82
2023/08/11 18:36:26;;;;;;;16.70;3.03;;;22.20;95.30;;;;;;4923166;29;20205;-82
2023/08/11 18:38:51;;;;;;;4.55;2.55;;;22.20;95.80;;;;;;4925431;29;20179;-82
2023/08/11 18:41:19;;;;;;;6.50;2.50;;;22.10;96.30;;;;;;4926701;29;20218;-82
2023/08/11 18:43:44;;;;;;;10.52;2.60;;;22.00;96.90;;;;;;4926776;29;20223;-82
2023/08/11 18:46:10;;;;;;;3.45;2.13;;;21.90;97.10;;;;;;4925554;29;20207;-81
2023/08/11 18:48:35;;;;;;;9.10;2.22;;;21.80;97.20;;;;;;4925579;29;20194;-82
2023/08/11 18:51:01;;;;;;;6.93;2.55;;;21.70;97.40;;;;;;4925817;29;20207;-82
2023/08/11 18:53:27;;;;;;;5.47;2.47;;;21.60;97.80;;;;;;4925298;29;20163;-82
2023/08/11 18:55:53;;;;;;;5.22;2.00;;;21.50;98.20;;;;;;4924189;29;20195;-82
2023/08/11 18:58:18;;;;;;;5.18;2.22;;;21.40;98.40;;;;;;4924207;29;20230;-81
2023/08/11 19:00:44;;;;;;;9.45;3.20;;;21.40;98.90;;;;;;4925796;29;20639;-81
2023/08/11 19:03:09;;;;;;;5.90;2.97;;;21.30;99.60;;;;;;4926138;29;20171;-81
2023/08/11 19:05:35;;;;;;;12.70;3.88;;;21.20;99.80;;;;;;4927485;29;20630;-81
2023/08/11 19:08:01;;;;;;;6.80;3.80;;;21.10;99.70;;;;;;4927920;29;20251;-82
2023/08/11 19:10:27;;;;;;;9.10;3.28;;;21.00;99.90;;;;;;4927378;29;20190;-82
2023/08/11 19:12:55;;;;;;;11.30;2.92;;;20.90;99.90;;;;;;4927364;29;20682;-82
2023/08/11 19:15:20;;;;;;;4.32;2.35;;;20.80;99.90;;;;;;4928352;29;20206;-82
2023/08/11 19:17:46;;;;;;;6.47;2.45;;;20.70;99.90;;;;;;4928742;29;20202;-82
2023/08/11 19:20:12;;;;;;;7.05;2.42;;;20.60;99.90;;;;;;4929100;29;20190;-82
2023/08/11 19:22:40;;;;;;;4.55;1.88;;;20.50;99.90;;;;;;4928845;29;20217;-82
2023/08/11 19:25:07;;;;;;;9.73;2.30;;;20.40;99.90;;;;;;4929631;29;20190;-82
2023/08/11 19:27:35;;;;;;;8.90;2.28;;;20.40;99.90;;;;;;4927999;29;20570;-82
2023/08/11 19:30:01;;;;;;;4.97;2.00;;;20.40;99.90;;;;;;4926398;29;20185;-82
2023/08/11 19:32:28;;;;;;;6.97;2.25;;;20.20;99.90;;;;;;4926397;29;20209;-81
2023/08/11 19:34:55;;;;;;;13.13;2.10;;;20.20;99.90;;;;;;4926403;29;20186;-81
2023/08/11 19:37:21;;;;;;;4.63;2.05;;;20.10;99.90;;;;;;4927396;29;20205;-81
2023/08/11 19:39:46;;;;;;;7.03;1.98;;;20.10;99.90;;;;;;4927415;29;20175;-81
2023/08/11 19:42:12;;;;;;;4.57;2.33;;;20.00;99.90;;;;;;4927078;29;20183;-81
2023/08/11 19:44:40;;;;;;;13.35;2.78;;;19.90;99.90;;;;;;4928075;29;20230;-82
2023/08/11 19:47:05;;;;;;;17.42;3.10;;;19.80;99.90;;;;;;4928200;29;20199;-82
2023/08/11 19:49:31;;;;;;;26.52;3.42;;;19.70;99.90;;;;;;4927984;29;20211;-82
2023/08/11 19:51:56;;;;;;;13.60;3.50;;;19.70;99.90;;;;;;4927314;29;20210;-82
2023/08/11 19:54:22;;;;;;;30.05;3.50;;;19.60;99.90;;;;;;4927246;29;20322;-82
2023/08/11 19:56:49;;;;;;;22.75;3.65;;;19.50;99.90;;;;;;4927149;29;20250;-82
2023/08/11 19:59:14;;;;;;;17.60;3.22;;;19.50;99.90;;;;;;4928341;29;20187;-82